sensor_id;sensor_type;location;lat;lon;timestamp;P1;durP1;ratioP1;P2;durP2;ratioP2
22606;SDS011;11470;20.968;105.834;2022-10-31T00:03:17;22.20;;;12.23;;
22606;SDS011;11470;20.968;105.834;2022-10-31T00:08:23;18.63;;;9.45;;
22606;SDS011;11470;20.968;105.834;2022-10-31T00:13:28;11.80;;;5.77;;
22606;SDS011;11470;20.968;105.834;2022-10-31T00:18:34;12.13;;;6.32;;
22606;SDS011;11470;20.968;105.834;2022-10-31T00:23:39;16.40;;;7.85;;
22606;SDS011;11470;20.968;105.834;2022-10-31T00:28:45;19.08;;;11.68;;
22606;SDS011;11470;20.968;105.834;2022-10-31T00:33:51;16.58;;;7.88;;
22606;SDS011;11470;20.968;105.834;2022-10-31T00:38:57;19.35;;;11.65;;
22606;SDS011;11470;20.968;105.834;2022-10-31T00:44:03;23.27;;;13.13;;
22606;SDS011;11470;20.968;105.834;2022-10-31T00:49:08;15.30;;;9.97;;
22606;SDS011;11470;20.968;105.834;2022-10-31T00:54:13;16.55;;;11.32;;
22606;SDS011;11470;20.968;105.834;2022-10-31T00:59:20;20.05;;;11.07;;
22606;SDS011;11470;20.968;105.834;2022-10-31T01:04:25;20.50;;;11.30;;
22606;SDS011;11470;20.968;105.834;2022-10-31T01:14:36;17.13;;;9.68;;
22606;SDS011;11470;20.968;105.834;2022-10-31T01:19:41;10.97;;;6.30;;
22606;SDS011;11470;20.968;105.834;2022-10-31T01:29:53;10.57;;;6.65;;
22606;SDS011;11470;20.968;105.834;2022-10-31T01:34:59;14.40;;;8.85;;
22606;SDS011;11470;20.968;105.834;2022-10-31T01:40:05;18.48;;;11.93;;
22606;SDS011;11470;20.968;105.834;2022-10-31T01:45:10;18.35;;;11.32;;
22606;SDS011;11470;20.968;105.834;2022-10-31T01:50:35;22.52;;;10.52;;
22606;SDS011;11470;20.968;105.834;2022-10-31T01:55:42;12.23;;;7.00;;
22606;SDS011;11470;20.968;105.834;2022-10-31T02:00:51;11.48;;;7.45;;
22606;SDS011;11470;20.968;105.834;2022-10-31T02:05:57;8.70;;;6.03;;
22606;SDS011;11470;20.968;105.834;2022-10-31T02:16:08;13.35;;;8.13;;
22606;SDS011;11470;20.968;105.834;2022-10-31T02:31:51;14.82;;;8.63;;
22606;SDS011;11470;20.968;105.834;2022-10-31T02:36:58;12.85;;;7.43;;
22606;SDS011;11470;20.968;105.834;2022-10-31T02:42:25;11.45;;;5.63;;
22606;SDS011;11470;20.968;105.834;2022-10-31T02:47:36;10.00;;;5.35;;
22606;SDS011;11470;20.968;105.834;2022-10-31T02:52:42;9.07;;;5.60;;
22606;SDS011;11470;20.968;105.834;2022-10-31T02:57:48;15.45;;;5.85;;
22606;SDS011;11470;20.968;105.834;2022-10-31T03:18:16;12.27;;;7.65;;
22606;SDS011;11470;20.968;105.834;2022-10-31T03:23:23;9.80;;;6.35;;
22606;SDS011;11470;20.968;105.834;2022-10-31T03:28:31;10.60;;;6.57;;
22606;SDS011;11470;20.968;105.834;2022-10-31T03:33:39;10.07;;;5.88;;
22606;SDS011;11470;20.968;105.834;2022-10-31T03:38:46;10.63;;;5.88;;
22606;SDS011;11470;20.968;105.834;2022-10-31T03:43:57;8.13;;;6.00;;
22606;SDS011;11470;20.968;105.834;2022-10-31T03:49:05;7.28;;;4.80;;
22606;SDS011;11470;20.968;105.834;2022-10-31T03:54:14;11.07;;;7.70;;
22606;SDS011;11470;20.968;105.834;2022-10-31T03:59:24;9.00;;;6.28;;
22606;SDS011;11470;20.968;105.834;2022-10-31T04:04:31;8.35;;;5.55;;
22606;SDS011;11470;20.968;105.834;2022-10-31T04:09:40;11.68;;;6.88;;
22606;SDS011;11470;20.968;105.834;2022-10-31T04:14:47;13.50;;;6.68;;
22606;SDS011;11470;20.968;105.834;2022-10-31T04:19:55;8.32;;;4.93;;
22606;SDS011;11470;20.968;105.834;2022-10-31T04:25:00;9.73;;;4.57;;
22606;SDS011;11470;20.968;105.834;2022-10-31T04:30:09;8.55;;;6.07;;
22606;SDS011;11470;20.968;105.834;2022-10-31T04:35:15;6.32;;;3.13;;
22606;SDS011;11470;20.968;105.834;2022-10-31T04:40:21;9.20;;;5.50;;
22606;SDS011;11470;20.968;105.834;2022-10-31T04:45:29;8.13;;;6.18;;
22606;SDS011;11470;20.968;105.834;2022-10-31T04:50:36;7.53;;;3.45;;
22606;SDS011;11470;20.968;105.834;2022-10-31T04:55:41;9.52;;;4.10;;
22606;SDS011;11470;20.968;105.834;2022-10-31T05:00:53;8.13;;;4.90;;
22606;SDS011;11470;20.968;105.834;2022-10-31T05:11:03;5.43;;;4.00;;
22606;SDS011;11470;20.968;105.834;2022-10-31T05:21:23;6.55;;;4.82;;
22606;SDS011;11470;20.968;105.834;2022-10-31T05:26:33;8.43;;;4.03;;
22606;SDS011;11470;20.968;105.834;2022-10-31T05:31:39;7.27;;;3.97;;
22606;SDS011;11470;20.968;105.834;2022-10-31T05:37:04;8.30;;;4.67;;
22606;SDS011;11470;20.968;105.834;2022-10-31T05:47:15;7.47;;;4.53;;
22606;SDS011;11470;20.968;105.834;2022-10-31T05:52:30;5.25;;;3.60;;
22606;SDS011;11470;20.968;105.834;2022-10-31T05:57:43;6.88;;;5.63;;
22606;SDS011;11470;20.968;105.834;2022-10-31T06:02:49;5.60;;;3.70;;
22606;SDS011;11470;20.968;105.834;2022-10-31T06:08:01;9.80;;;5.10;;
22606;SDS011;11470;20.968;105.834;2022-10-31T06:13:06;4.32;;;3.47;;
22606;SDS011;11470;20.968;105.834;2022-10-31T06:18:19;5.60;;;2.67;;
22606;SDS011;11470;20.968;105.834;2022-10-31T06:23:26;4.22;;;2.65;;
22606;SDS011;11470;20.968;105.834;2022-10-31T06:28:52;7.27;;;3.37;;
22606;SDS011;11470;20.968;105.834;2022-10-31T06:34:29;5.43;;;3.97;;
22606;SDS011;11470;20.968;105.834;2022-10-31T06:39:35;8.48;;;4.63;;
22606;SDS011;11470;20.968;105.834;2022-10-31T06:44:45;6.85;;;4.78;;
22606;SDS011;11470;20.968;105.834;2022-10-31T06:50:16;11.95;;;4.35;;
22606;SDS011;11470;20.968;105.834;2022-10-31T06:55:25;5.53;;;3.33;;
22606;SDS011;11470;20.968;105.834;2022-10-31T07:00:31;8.00;;;3.38;;
22606;SDS011;11470;20.968;105.834;2022-10-31T07:05:40;4.57;;;2.80;;
22606;SDS011;11470;20.968;105.834;2022-10-31T07:10:51;8.15;;;3.47;;
22606;SDS011;11470;20.968;105.834;2022-10-31T07:16:02;5.95;;;3.47;;
22606;SDS011;11470;20.968;105.834;2022-10-31T07:21:10;4.60;;;2.60;;
22606;SDS011;11470;20.968;105.834;2022-10-31T07:26:15;9.02;;;6.25;;
22606;SDS011;11470;20.968;105.834;2022-10-31T07:31:22;5.78;;;4.10;;
22606;SDS011;11470;20.968;105.834;2022-10-31T07:36:34;5.18;;;4.28;;
22606;SDS011;11470;20.968;105.834;2022-10-31T07:41:40;9.60;;;6.47;;
22606;SDS011;11470;20.968;105.834;2022-10-31T07:46:46;12.27;;;5.35;;
22606;SDS011;11470;20.968;105.834;2022-10-31T07:52:23;12.70;;;3.75;;
22606;SDS011;11470;20.968;105.834;2022-10-31T07:57:54;6.78;;;3.30;;
22606;SDS011;11470;20.968;105.834;2022-10-31T08:03:04;9.93;;;4.67;;
22606;SDS011;11470;20.968;105.834;2022-10-31T08:08:30;4.22;;;3.80;;
22606;SDS011;11470;20.968;105.834;2022-10-31T08:13:42;10.13;;;7.07;;
22606;SDS011;11470;20.968;105.834;2022-10-31T08:18:49;7.90;;;3.63;;
22606;SDS011;11470;20.968;105.834;2022-10-31T08:23:54;6.10;;;3.97;;
22606;SDS011;11470;20.968;105.834;2022-10-31T08:29:00;7.93;;;4.78;;
22606;SDS011;11470;20.968;105.834;2022-10-31T08:34:10;8.38;;;4.50;;
22606;SDS011;11470;20.968;105.834;2022-10-31T08:39:34;7.25;;;4.75;;
22606;SDS011;11470;20.968;105.834;2022-10-31T08:49:45;9.73;;;6.13;;
22606;SDS011;11470;20.968;105.834;2022-10-31T08:54:50;6.55;;;4.80;;
22606;SDS011;11470;20.968;105.834;2022-10-31T09:00:15;12.57;;;4.30;;
22606;SDS011;11470;20.968;105.834;2022-10-31T09:05:41;6.10;;;3.55;;
22606;SDS011;11470;20.968;105.834;2022-10-31T09:10:47;14.38;;;8.15;;
22606;SDS011;11470;20.968;105.834;2022-10-31T09:16:08;13.85;;;8.73;;
22606;SDS011;11470;20.968;105.834;2022-10-31T09:21:13;7.32;;;3.90;;
22606;SDS011;11470;20.968;105.834;2022-10-31T09:26:20;8.75;;;5.38;;
22606;SDS011;11470;20.968;105.834;2022-10-31T09:31:44;8.23;;;5.15;;
22606;SDS011;11470;20.968;105.834;2022-10-31T09:37:08;11.75;;;7.85;;
22606;SDS011;11470;20.968;105.834;2022-10-31T09:42:38;13.50;;;7.35;;
22606;SDS011;11470;20.968;105.834;2022-10-31T09:47:50;10.45;;;6.45;;
22606;SDS011;11470;20.968;105.834;2022-10-31T09:53:11;10.65;;;5.85;;
22606;SDS011;11470;20.968;105.834;2022-10-31T09:58:28;11.82;;;7.65;;
22606;SDS011;11470;20.968;105.834;2022-10-31T10:03:41;13.20;;;4.90;;
22606;SDS011;11470;20.968;105.834;2022-10-31T10:09:11;16.67;;;10.65;;
22606;SDS011;11470;20.968;105.834;2022-10-31T10:14:51;17.35;;;9.27;;
22606;SDS011;11470;20.968;105.834;2022-10-31T10:25:16;18.80;;;10.63;;
22606;SDS011;11470;20.968;105.834;2022-10-31T10:30:26;19.80;;;10.25;;
22606;SDS011;11470;20.968;105.834;2022-10-31T10:35:54;19.42;;;9.48;;
22606;SDS011;11470;20.968;105.834;2022-10-31T10:41:02;19.70;;;10.02;;
22606;SDS011;11470;20.968;105.834;2022-10-31T10:51:59;17.95;;;9.05;;
22606;SDS011;11470;20.968;105.834;2022-10-31T11:02:43;20.38;;;9.85;;
22606;SDS011;11470;20.968;105.834;2022-10-31T11:07:50;22.77;;;9.60;;
22606;SDS011;11470;20.968;105.834;2022-10-31T11:13:01;15.52;;;6.32;;
22606;SDS011;11470;20.968;105.834;2022-10-31T11:18:12;18.08;;;9.18;;
22606;SDS011;11470;20.968;105.834;2022-10-31T11:23:23;11.03;;;5.60;;
22606;SDS011;11470;20.968;105.834;2022-10-31T11:28:30;14.30;;;7.18;;
22606;SDS011;11470;20.968;105.834;2022-10-31T11:33:45;19.00;;;9.88;;
22606;SDS011;11470;20.968;105.834;2022-10-31T11:38:51;16.08;;;7.72;;
22606;SDS011;11470;20.968;105.834;2022-10-31T11:44:02;13.48;;;6.78;;
22606;SDS011;11470;20.968;105.834;2022-10-31T11:49:20;19.92;;;10.88;;
22606;SDS011;11470;20.968;105.834;2022-10-31T11:54:29;21.92;;;10.77;;
22606;SDS011;11470;20.968;105.834;2022-10-31T11:59:36;11.18;;;7.45;;
22606;SDS011;11470;20.968;105.834;2022-10-31T12:04:44;15.70;;;8.27;;
22606;SDS011;11470;20.968;105.834;2022-10-31T12:09:53;13.50;;;6.30;;
22606;SDS011;11470;20.968;105.834;2022-10-31T12:20:37;15.65;;;7.03;;
22606;SDS011;11470;20.968;105.834;2022-10-31T12:47:09;13.63;;;7.32;;
22606;SDS011;11470;20.968;105.834;2022-10-31T12:52:41;15.73;;;7.85;;
22606;SDS011;11470;20.968;105.834;2022-10-31T12:57:34;20.13;;;9.35;;
22606;SDS011;11470;20.968;105.834;2022-10-31T13:13:06;18.05;;;10.13;;
22606;SDS011;11470;20.968;105.834;2022-10-31T13:18:13;18.02;;;8.30;;
22606;SDS011;11470;20.968;105.834;2022-10-31T13:23:32;10.07;;;5.50;;
22606;SDS011;11470;20.968;105.834;2022-10-31T13:34:36;12.45;;;7.18;;
22606;SDS011;11470;20.968;105.834;2022-10-31T13:45:17;10.35;;;4.60;;
22606;SDS011;11470;20.968;105.834;2022-10-31T13:50:30;10.30;;;6.30;;
22606;SDS011;11470;20.968;105.834;2022-10-31T13:56:36;15.60;;;9.10;;
22606;SDS011;11470;20.968;105.834;2022-10-31T14:06:16;13.15;;;7.28;;
22606;SDS011;11470;20.968;105.834;2022-10-31T14:11:23;12.10;;;5.70;;
22606;SDS011;11470;20.968;105.834;2022-10-31T14:16:37;12.70;;;7.30;;
22606;SDS011;11470;20.968;105.834;2022-10-31T14:21:46;14.05;;;8.45;;
22606;SDS011;11470;20.968;105.834;2022-10-31T14:52:29;12.75;;;8.18;;
22606;SDS011;11470;20.968;105.834;2022-10-31T14:57:35;14.68;;;7.65;;
22606;SDS011;11470;20.968;105.834;2022-10-31T15:07:52;11.85;;;7.00;;
22606;SDS011;11470;20.968;105.834;2022-10-31T15:13:15;12.25;;;7.63;;
22606;SDS011;11470;20.968;105.834;2022-10-31T15:18:28;14.13;;;7.55;;
22606;SDS011;11470;20.968;105.834;2022-10-31T15:23:34;16.98;;;8.23;;
22606;SDS011;11470;20.968;105.834;2022-10-31T15:28:44;9.95;;;5.20;;
22606;SDS011;11470;20.968;105.834;2022-10-31T15:33:49;13.48;;;7.43;;
22606;SDS011;11470;20.968;105.834;2022-10-31T15:39:01;20.60;;;8.77;;
22606;SDS011;11470;20.968;105.834;2022-10-31T15:44:29;12.77;;;6.38;;
22606;SDS011;11470;20.968;105.834;2022-10-31T15:49:47;15.10;;;8.60;;
22606;SDS011;11470;20.968;105.834;2022-10-31T15:55:05;13.82;;;7.78;;
22606;SDS011;11470;20.968;105.834;2022-10-31T16:00:29;9.68;;;4.43;;
22606;SDS011;11470;20.968;105.834;2022-10-31T16:05:39;17.75;;;8.52;;
22606;SDS011;11470;20.968;105.834;2022-10-31T16:10:45;14.10;;;6.57;;
22606;SDS011;11470;20.968;105.834;2022-10-31T16:15:57;16.60;;;8.25;;
22606;SDS011;11470;20.968;105.834;2022-10-31T16:21:25;17.10;;;8.25;;
22606;SDS011;11470;20.968;105.834;2022-10-31T16:26:32;16.80;;;8.68;;
22606;SDS011;11470;20.968;105.834;2022-10-31T16:31:38;17.75;;;9.63;;
22606;SDS011;11470;20.968;105.834;2022-10-31T16:41:54;16.98;;;7.60;;
22606;SDS011;11470;20.968;105.834;2022-10-31T16:47:07;21.20;;;8.63;;
22606;SDS011;11470;20.968;105.834;2022-10-31T16:52:14;14.38;;;6.97;;
22606;SDS011;11470;20.968;105.834;2022-10-31T16:57:21;14.70;;;5.32;;
22606;SDS011;11470;20.968;105.834;2022-10-31T17:02:28;13.50;;;6.05;;
22606;SDS011;11470;20.968;105.834;2022-10-31T17:07:35;15.38;;;7.45;;
22606;SDS011;11470;20.968;105.834;2022-10-31T17:12:44;16.90;;;6.60;;
22606;SDS011;11470;20.968;105.834;2022-10-31T17:17:50;14.75;;;8.60;;
22606;SDS011;11470;20.968;105.834;2022-10-31T17:22:58;14.10;;;7.50;;
22606;SDS011;11470;20.968;105.834;2022-10-31T17:28:04;14.70;;;8.75;;
22606;SDS011;11470;20.968;105.834;2022-10-31T17:33:13;14.57;;;7.68;;
22606;SDS011;11470;20.968;105.834;2022-10-31T17:38:27;9.93;;;5.80;;
22606;SDS011;11470;20.968;105.834;2022-10-31T17:43:38;7.68;;;4.25;;
22606;SDS011;11470;20.968;105.834;2022-10-31T17:48:43;10.13;;;4.55;;
22606;SDS011;11470;20.968;105.834;2022-10-31T17:53:49;11.87;;;6.50;;
22606;SDS011;11470;20.968;105.834;2022-10-31T17:58:54;11.50;;;6.07;;
22606;SDS011;11470;20.968;105.834;2022-10-31T18:04:00;10.02;;;5.95;;
22606;SDS011;11470;20.968;105.834;2022-10-31T18:09:06;11.15;;;6.22;;
22606;SDS011;11470;20.968;105.834;2022-10-31T18:14:12;8.60;;;5.28;;
22606;SDS011;11470;20.968;105.834;2022-10-31T18:19:18;17.00;;;7.67;;
22606;SDS011;11470;20.968;105.834;2022-10-31T18:24:23;12.00;;;6.30;;
22606;SDS011;11470;20.968;105.834;2022-10-31T18:29:28;10.60;;;4.47;;
22606;SDS011;11470;20.968;105.834;2022-10-31T18:34:33;9.50;;;4.95;;
22606;SDS011;11470;20.968;105.834;2022-10-31T18:39:39;15.00;;;7.45;;
22606;SDS011;11470;20.968;105.834;2022-10-31T18:44:44;17.17;;;5.33;;
22606;SDS011;11470;20.968;105.834;2022-10-31T18:49:50;10.43;;;5.45;;
22606;SDS011;11470;20.968;105.834;2022-10-31T18:54:56;11.02;;;5.25;;
22606;SDS011;11470;20.968;105.834;2022-10-31T19:00:05;11.05;;;6.32;;
22606;SDS011;11470;20.968;105.834;2022-10-31T19:05:10;8.80;;;4.72;;
22606;SDS011;11470;20.968;105.834;2022-10-31T19:10:16;9.43;;;5.80;;
22606;SDS011;11470;20.968;105.834;2022-10-31T19:15:21;8.97;;;5.57;;
22606;SDS011;11470;20.968;105.834;2022-10-31T19:20:27;12.05;;;6.25;;
22606;SDS011;11470;20.968;105.834;2022-10-31T19:25:32;11.43;;;5.77;;
22606;SDS011;11470;20.968;105.834;2022-10-31T19:30:37;9.73;;;5.30;;
22606;SDS011;11470;20.968;105.834;2022-10-31T19:35:43;10.32;;;4.05;;
22606;SDS011;11470;20.968;105.834;2022-10-31T19:40:48;11.33;;;5.63;;
22606;SDS011;11470;20.968;105.834;2022-10-31T19:45:54;6.78;;;4.53;;
22606;SDS011;11470;20.968;105.834;2022-10-31T19:51:01;10.35;;;5.43;;
22606;SDS011;11470;20.968;105.834;2022-10-31T19:56:10;8.85;;;5.88;;
22606;SDS011;11470;20.968;105.834;2022-10-31T20:01:20;14.63;;;5.30;;
22606;SDS011;11470;20.968;105.834;2022-10-31T20:06:27;10.00;;;5.60;;
22606;SDS011;11470;20.968;105.834;2022-10-31T20:11:32;10.23;;;4.65;;
22606;SDS011;11470;20.968;105.834;2022-10-31T20:16:39;7.60;;;3.53;;
22606;SDS011;11470;20.968;105.834;2022-10-31T20:21:45;16.10;;;8.65;;
22606;SDS011;11470;20.968;105.834;2022-10-31T20:26:50;14.95;;;8.73;;
22606;SDS011;11470;20.968;105.834;2022-10-31T20:31:56;17.60;;;8.73;;
22606;SDS011;11470;20.968;105.834;2022-10-31T20:37:01;11.90;;;6.63;;
22606;SDS011;11470;20.968;105.834;2022-10-31T20:42:07;13.75;;;5.00;;
22606;SDS011;11470;20.968;105.834;2022-10-31T20:47:13;14.55;;;8.02;;
22606;SDS011;11470;20.968;105.834;2022-10-31T20:52:21;20.77;;;11.82;;
22606;SDS011;11470;20.968;105.834;2022-10-31T20:57:27;18.70;;;10.10;;
22606;SDS011;11470;20.968;105.834;2022-10-31T21:02:32;21.33;;;11.18;;
22606;SDS011;11470;20.968;105.834;2022-10-31T21:12:43;26.60;;;13.80;;
22606;SDS011;11470;20.968;105.834;2022-10-31T21:17:49;25.15;;;11.98;;
22606;SDS011;11470;20.968;105.834;2022-10-31T21:22:54;19.27;;;11.98;;
22606;SDS011;11470;20.968;105.834;2022-10-31T21:28:00;15.68;;;9.02;;
22606;SDS011;11470;20.968;105.834;2022-10-31T21:33:06;26.90;;;14.35;;
22606;SDS011;11470;20.968;105.834;2022-10-31T21:38:11;16.98;;;8.45;;
22606;SDS011;11470;20.968;105.834;2022-10-31T21:43:16;27.90;;;13.93;;
22606;SDS011;11470;20.968;105.834;2022-10-31T21:53:32;26.75;;;14.98;;
22606;SDS011;11470;20.968;105.834;2022-10-31T21:58:55;25.88;;;13.57;;
22606;SDS011;11470;20.968;105.834;2022-10-31T22:04:02;21.27;;;13.18;;
22606;SDS011;11470;20.968;105.834;2022-10-31T22:09:07;25.30;;;12.02;;
22606;SDS011;11470;20.968;105.834;2022-10-31T22:14:14;25.70;;;13.75;;
22606;SDS011;11470;20.968;105.834;2022-10-31T22:19:19;31.37;;;16.03;;
22606;SDS011;11470;20.968;105.834;2022-10-31T22:24:25;26.27;;;14.00;;
22606;SDS011;11470;20.968;105.834;2022-10-31T22:29:30;25.08;;;14.25;;
22606;SDS011;11470;20.968;105.834;2022-10-31T22:34:38;27.80;;;14.45;;
22606;SDS011;11470;20.968;105.834;2022-10-31T22:39:43;25.87;;;14.23;;
22606;SDS011;11470;20.968;105.834;2022-10-31T22:44:49;32.50;;;16.38;;
22606;SDS011;11470;20.968;105.834;2022-10-31T22:49:54;27.60;;;14.68;;
22606;SDS011;11470;20.968;105.834;2022-10-31T22:55:00;31.45;;;16.05;;
22606;SDS011;11470;20.968;105.834;2022-10-31T23:00:05;31.38;;;15.80;;
22606;SDS011;11470;20.968;105.834;2022-10-31T23:05:12;27.70;;;16.15;;
22606;SDS011;11470;20.968;105.834;2022-10-31T23:10:17;27.20;;;15.50;;
22606;SDS011;11470;20.968;105.834;2022-10-31T23:15:22;36.95;;;14.18;;
22606;SDS011;11470;20.968;105.834;2022-10-31T23:20:28;29.20;;;14.33;;
22606;SDS011;11470;20.968;105.834;2022-10-31T23:25:33;30.52;;;15.80;;
22606;SDS011;11470;20.968;105.834;2022-10-31T23:30:57;32.20;;;15.43;;
22606;SDS011;11470;20.968;105.834;2022-10-31T23:36:03;27.67;;;14.75;;
22606;SDS011;11470;20.968;105.834;2022-10-31T23:41:08;34.88;;;20.55;;
22606;SDS011;11470;20.968;105.834;2022-10-31T23:46:14;38.67;;;16.13;;
22606;SDS011;11470;20.968;105.834;2022-10-31T23:51:32;27.60;;;14.30;;
22606;SDS011;11470;20.968;105.834;2022-10-31T23:56:38;28.60;;;13.20;;
